createdAt,value
2022-09-23T00:02:09.208Z,101520.00
2022-09-23T00:04:37.419Z,101520.81
2022-09-23T00:07:05.798Z,101519.50
2022-09-23T00:09:34.126Z,101513.66
2022-09-23T00:12:08.652Z,101515.34
2022-09-23T00:14:38.903Z,101510.91
2022-09-23T00:17:07.146Z,101514.03
2022-09-23T00:19:35.440Z,101519.84
2022-09-23T00:22:03.445Z,101509.59
2022-09-23T00:24:32.530Z,101505.22
2022-09-23T00:27:00.633Z,101513.66
2022-09-23T00:29:30.123Z,101501.66
2022-09-23T00:31:58.286Z,101495.34
2022-09-23T00:34:26.375Z,101493.66
2022-09-23T00:36:54.488Z,101484.38
2022-09-23T00:39:22.511Z,101476.50
2022-09-23T00:41:50.963Z,101483.63
2022-09-23T00:44:44.280Z,101474.00
2022-09-23T00:47:21.537Z,101471.03
2022-09-23T00:50:00.068Z,101459.81
2022-09-23T00:52:28.442Z,101461.38
2022-09-23T00:54:58.900Z,101466.88
2022-09-23T00:57:28.223Z,101472.69
2022-09-23T00:59:57.928Z,101479.47
2022-09-23T01:02:28.323Z,101493.78
2022-09-23T01:04:56.635Z,101491.03
2022-09-23T01:07:24.819Z,101482.69
2022-09-23T01:09:53.109Z,101484.84
2022-09-23T01:12:38.563Z,101478.78
2022-09-23T01:15:15.772Z,101483.06
2022-09-23T01:17:53.158Z,101489.84
2022-09-23T01:20:42.821Z,101488.19
2022-09-23T01:23:30.331Z,101481.06
2022-09-23T01:26:30.695Z,101481.16
2022-09-23T01:29:28.457Z,101480.91
2022-09-23T01:32:03.352Z,101483.06
2022-09-23T01:34:37.659Z,101486.16
2022-09-23T01:37:12.165Z,101480.09
2022-09-23T01:39:45.148Z,101480.47
2022-09-23T01:42:18.753Z,101482.00
2022-09-23T01:44:52.496Z,101477.13
2022-09-23T01:47:26.293Z,101480.00
2022-09-23T01:50:00.599Z,101472.94
2022-09-23T01:52:36.505Z,101470.91
2022-09-23T01:55:11.273Z,101470.91
2022-09-23T01:57:44.583Z,101479.13
2022-09-23T02:00:16.231Z,101468.41
2022-09-23T02:02:50.969Z,101462.19
2022-09-23T02:05:24.043Z,101463.56
2022-09-23T02:07:59.422Z,101463.28
2022-09-23T02:10:33.646Z,101456.72
2022-09-23T02:13:07.414Z,101454.47
2022-09-23T02:15:41.932Z,101456.13
2022-09-23T02:18:16.268Z,101457.69
2022-09-23T02:20:44.950Z,101456.03
2022-09-23T02:23:16.086Z,101454.94
2022-09-23T02:25:51.883Z,101451.63
2022-09-23T02:28:26.574Z,101453.88
2022-09-23T02:31:07.695Z,101452.69
2022-09-23T02:33:42.794Z,101449.59
2022-09-23T02:36:17.280Z,101443.41
2022-09-23T02:38:51.496Z,101448.28
2022-09-23T02:41:28.447Z,101449.97
2022-09-23T02:44:01.415Z,101457.56
2022-09-23T02:46:31.015Z,101458.66
2022-09-23T02:49:04.621Z,101448.75
2022-09-23T02:51:37.913Z,101451.50
2022-09-23T02:54:08.242Z,101455.44
2022-09-23T02:56:37.490Z,101448.75
2022-09-23T02:59:06.205Z,101452.09
2022-09-23T03:01:47.649Z,101446.63
2022-09-23T03:04:27.713Z,101447.22
2022-09-23T03:07:05.510Z,101449.22
2022-09-23T03:09:37.636Z,101442.34
2022-09-23T03:12:15.743Z,101434.59
2022-09-23T03:14:53.565Z,101429.72
2022-09-23T03:17:26.813Z,101435.19
2022-09-23T03:20:02.215Z,101433.53
2022-09-23T03:22:34.759Z,101439.63
2022-09-23T03:25:09.603Z,101426.50
2022-09-23T03:27:39.137Z,101429.84
2022-09-23T03:30:09.326Z,101425.94
2022-09-23T03:32:38.369Z,101422.09
2022-09-23T03:35:08.949Z,101430.31
2022-09-23T03:37:42.518Z,101417.94
2022-09-23T03:40:16.185Z,101420.44
2022-09-23T03:42:44.982Z,101421.03
2022-09-23T03:45:18.538Z,101420.81
2022-09-23T03:47:47.215Z,101425.44
2022-09-23T03:50:17.710Z,101423.53
2022-09-23T03:52:46.440Z,101422.94
2022-09-23T03:55:17.065Z,101413.91
2022-09-23T03:57:45.820Z,101421.63
2022-09-23T04:00:16.010Z,101413.91
2022-09-23T04:02:44.396Z,101407.34
2022-09-23T04:05:14.202Z,101406.50
2022-09-23T04:07:43.736Z,101408.41
2022-09-23T04:10:12.024Z,101414.72
2022-09-23T04:12:40.290Z,101412.00
2022-09-23T04:15:09.081Z,101410.69
2022-09-23T04:17:37.475Z,101413.19
2022-09-23T04:20:06.219Z,101410.69
2022-09-23T04:22:34.387Z,101412.31
2022-09-23T04:25:04.221Z,101407.13
2022-09-23T04:27:37.474Z,101406.84
2022-09-23T04:30:07.036Z,101405.81
2022-09-23T04:32:35.238Z,101403.06
2022-09-23T04:35:03.259Z,101406.97
2022-09-23T04:37:31.479Z,101406.97
2022-09-23T04:39:59.810Z,101414.34
2022-09-23T04:42:31.211Z,101413.53
2022-09-23T04:44:59.261Z,101407.34
2022-09-23T04:47:27.285Z,101399.59
2022-09-23T04:49:59.593Z,101399.38
2022-09-23T04:52:28.395Z,101400.94
2022-09-23T04:54:56.439Z,101399.25
2022-09-23T04:57:24.715Z,101403.91
2022-09-23T04:59:56.126Z,101401.38
2022-09-23T05:02:24.388Z,101404.72
2022-09-23T05:04:52.514Z,101405.53
2022-09-23T05:07:20.774Z,101402.09
2022-09-23T05:09:49.387Z,101394.97
2022-09-23T05:12:17.417Z,101399.13
2022-09-23T05:14:45.556Z,101403.19
2022-09-23T05:17:15.566Z,101397.72
2022-09-23T05:19:43.605Z,101390.31
2022-09-23T05:22:11.660Z,101392.13
2022-09-23T05:24:39.667Z,101385.69
2022-09-23T05:27:08.152Z,101389.50
2022-09-23T05:29:36.255Z,101394.72
2022-09-23T05:32:04.322Z,101397.84
2022-09-23T05:34:33.787Z,101395.31
2022-09-23T05:37:01.857Z,101399.97
2022-09-23T05:39:30.178Z,101395.31
2022-09-23T05:42:00.172Z,101392.81
2022-09-23T05:44:28.290Z,101405.44
2022-09-23T05:46:56.616Z,101396.28
2022-09-23T05:49:42.585Z,101397.94
2022-09-23T05:52:14.386Z,101402.59
2022-09-23T05:54:42.464Z,101408.19
2022-09-23T05:57:10.524Z,101403.19
2022-09-23T05:59:39.166Z,101409.22
2022-09-23T06:02:07.549Z,101409.72
2022-09-23T06:04:35.668Z,101406.50
2022-09-23T06:07:03.882Z,101405.44
2022-09-23T06:09:36.568Z,101398.69
2022-09-23T06:12:06.368Z,101403.91
2022-09-23T06:14:34.613Z,101405.59
2022-09-23T06:17:02.797Z,101409.16
2022-09-23T06:19:30.953Z,101406.16
2022-09-23T06:21:59.233Z,101404.00
2022-09-23T06:24:30.958Z,101411.19
2022-09-23T06:27:01.365Z,101407.84
2022-09-23T06:29:30.872Z,101406.03
2022-09-23T06:31:59.699Z,101413.66
2022-09-23T06:34:27.922Z,101418.91
2022-09-23T06:36:55.961Z,101422.47
2022-09-23T06:39:24.070Z,101424.13
2022-09-23T06:41:52.221Z,101429.88
2022-09-23T06:44:21.606Z,101424.38
2022-09-23T06:46:49.667Z,101429.88
2022-09-23T06:49:17.754Z,101426.03
2022-09-23T06:51:45.831Z,101429.59
2022-09-23T06:54:13.859Z,101427.94
2022-09-23T06:56:45.118Z,101421.38
2022-09-23T06:59:16.932Z,101431.03
2022-09-23T07:01:47.709Z,101426.63
2022-09-23T07:04:15.642Z,101421.50
2022-09-23T07:06:43.845Z,101426.38
2022-09-23T07:09:12.240Z,101427.69
2022-09-23T07:11:40.539Z,101427.47
2022-09-23T07:14:08.711Z,101429.38
2022-09-23T07:16:36.723Z,101426.75
2022-09-23T07:19:06.617Z,101427.81
2022-09-23T07:21:34.791Z,101423.41
2022-09-23T07:24:02.985Z,101428.66
2022-09-23T07:26:34.163Z,101425.66
2022-09-23T07:29:05.258Z,101429.00
2022-09-23T07:31:39.137Z,101430.66
2022-09-23T07:34:11.677Z,101420.53
2022-09-23T07:36:41.632Z,101429.59
2022-09-23T07:39:11.292Z,101430.66
2022-09-23T07:41:41.624Z,101440.78
2022-09-23T07:44:11.827Z,101447.09
2022-09-23T07:46:40.347Z,101445.44
2022-09-23T07:49:10.559Z,101435.66
2022-09-23T07:51:41.018Z,101437.56
2022-09-23T07:54:14.002Z,101442.00
2022-09-23T07:56:43.643Z,101441.72
2022-09-23T07:59:15.436Z,101441.63
2022-09-23T08:01:46.299Z,101441.00
2022-09-23T08:04:17.773Z,101433.13
2022-09-23T08:06:48.491Z,101432.09
2022-09-23T08:09:18.551Z,101435.66
2022-09-23T08:11:46.930Z,101449.34
2022-09-23T08:14:17.938Z,101445.53
2022-09-23T08:16:47.124Z,101429.91
2022-09-23T08:19:17.363Z,101433.25
2022-09-23T08:21:47.596Z,101443.72
2022-09-23T08:24:17.676Z,101443.13
2022-09-23T08:26:47.039Z,101443.81
2022-09-23T08:29:16.313Z,101446.56
2022-09-23T08:31:44.619Z,101439.66
2022-09-23T08:34:13.305Z,101437.25
2022-09-23T08:36:43.267Z,101449.41
2022-09-23T08:39:15.136Z,101453.81
2022-09-23T08:41:49.957Z,101451.66
2022-09-23T08:44:22.841Z,101459.16
2022-09-23T08:46:55.779Z,101455.13
2022-09-23T08:49:29.524Z,101454.03
2022-09-23T08:52:06.815Z,101453.44
2022-09-23T08:54:35.006Z,101460.00
2022-09-23T08:57:06.008Z,101462.41
2022-09-23T08:59:41.599Z,101459.06
2022-09-23T09:02:19.113Z,101465.16
2022-09-23T09:04:51.963Z,101464.81
2022-09-23T09:07:37.630Z,101465.06
2022-09-23T09:10:12.094Z,101463.53
2022-09-23T09:12:44.621Z,101477.97
2022-09-23T09:15:15.924Z,101469.97
2022-09-23T09:17:55.797Z,101479.63
2022-09-23T09:20:32.348Z,101471.28
2022-09-23T09:23:07.522Z,101475.09
2022-09-23T09:25:44.088Z,101469.59
2022-09-23T09:28:23.157Z,101476.16
2022-09-23T09:30:55.990Z,101473.44
2022-09-23T09:33:32.320Z,101476.03
2022-09-23T09:36:17.244Z,101474.03
2022-09-23T09:38:46.713Z,101482.59
2022-09-23T09:41:17.982Z,101472.84
2022-09-23T09:43:52.405Z,101471.41
2022-09-23T09:46:37.109Z,101476.53
2022-09-23T09:49:15.340Z,101467.31
2022-09-23T09:51:44.361Z,101468.31
2022-09-23T09:54:24.708Z,101471.41
2022-09-23T09:56:54.597Z,101466.88
2022-09-23T09:59:29.615Z,101470.09
2022-09-23T10:02:14.638Z,101474.72
2022-09-23T10:04:43.978Z,101464.00
2022-09-23T10:07:15.586Z,101469.00
2022-09-23T10:09:51.867Z,101461.97
2022-09-23T10:12:22.816Z,101469.94
2022-09-23T10:14:53.205Z,101467.31
2022-09-23T10:17:24.493Z,101470.78
2022-09-23T10:20:00.388Z,101472.56
2022-09-23T10:22:32.737Z,101468.63
2022-09-23T10:25:07.841Z,101464.31
2022-09-23T10:27:38.802Z,101460.41
2022-09-23T10:30:21.672Z,101460.50
2022-09-23T10:32:50.559Z,101465.63
2022-09-23T10:35:22.769Z,101461.13
2022-09-23T10:37:54.721Z,101458.72
2022-09-23T10:40:48.673Z,101461.91
2022-09-23T10:43:52.561Z,101457.88
2022-09-23T10:46:44.864Z,101454.19
2022-09-23T10:49:43.801Z,101453.84
2022-09-23T10:52:28.664Z,101453.13
2022-09-23T10:55:08.895Z,101451.91
2022-09-23T10:57:54.195Z,101449.25
2022-09-23T11:00:24.848Z,101445.31
2022-09-23T11:03:14.299Z,101445.31
2022-09-23T11:05:51.193Z,101446.41
2022-09-23T11:08:40.002Z,101448.97
2022-09-23T11:11:25.353Z,101445.28
2022-09-23T11:14:15.866Z,101446.59
2022-09-23T11:17:01.080Z,101445.69
2022-09-23T11:19:52.226Z,101447.47
2022-09-23T11:22:36.105Z,101451.28
2022-09-23T11:25:30.343Z,101454.75
2022-09-23T11:28:21.581Z,101450.78
2022-09-23T11:30:59.285Z,101440.56
2022-09-23T11:33:35.906Z,101440.78
2022-09-23T11:36:07.878Z,101443.97
2022-09-23T11:38:40.213Z,101433.00
2022-09-23T11:41:18.702Z,101434.94
2022-09-23T11:43:52.420Z,101435.03
2022-09-23T11:46:32.314Z,101431.38
2022-09-23T11:49:08.559Z,101437.19
2022-09-23T11:51:43.974Z,101425.94
2022-09-23T11:54:20.732Z,101423.22
2022-09-23T11:56:52.597Z,101422.34
2022-09-23T11:59:39.608Z,101419.28
2022-09-23T12:02:24.671Z,101419.38
2022-09-23T12:05:03.070Z,101418.34
2022-09-23T12:07:45.344Z,101416.34
2022-09-23T12:10:13.949Z,101425.84
2022-09-23T12:12:50.871Z,101423.03
2022-09-23T12:15:32.180Z,101417.06
2022-09-23T12:18:35.729Z,101413.81
2022-09-23T12:21:45.782Z,101421.19
2022-09-23T12:24:27.782Z,101410.31
2022-09-23T12:27:02.969Z,101413.97
2022-09-23T12:29:33.031Z,101404.81
2022-09-23T12:32:01.455Z,101413.22
2022-09-23T12:34:39.290Z,101405.06
2022-09-23T12:37:07.661Z,101413.28
2022-09-23T12:39:38.789Z,101402.66
2022-09-23T12:42:15.259Z,101402.38
2022-09-23T12:44:47.106Z,101397.66
2022-09-23T12:47:40.984Z,101400.09
2022-09-23T12:50:46.941Z,101399.38
2022-09-23T12:53:57.652Z,101402.38
2022-09-23T12:56:58.322Z,101395.72
2022-09-23T12:59:29.905Z,101401.56
2022-09-23T13:01:59.441Z,101395.94
2022-09-23T13:04:51.562Z,101404.03
2022-09-23T13:07:25.851Z,101396.94
2022-09-23T13:10:02.319Z,101401.09
2022-09-23T13:12:36.058Z,101394.50
2022-09-23T13:15:07.173Z,101393.03
2022-09-23T13:17:38.540Z,101394.84
2022-09-23T13:20:28.192Z,101397.91
2022-09-23T13:23:23.883Z,101394.06
2022-09-23T13:25:53.891Z,101397.78
2022-09-23T13:28:30.819Z,101398.06
2022-09-23T13:31:00.358Z,101388.66
2022-09-23T13:33:39.966Z,101386.06
2022-09-23T13:36:13.987Z,101389.94
2022-09-23T13:38:47.040Z,101385.78
2022-09-23T13:41:18.575Z,101386.69
2022-09-23T13:43:52.990Z,101379.72
2022-09-23T13:46:24.610Z,101384.44
2022-09-23T13:48:55.706Z,101387.38
2022-09-23T13:51:27.864Z,101386.03
2022-09-23T13:53:59.143Z,101386.63
2022-09-23T13:56:28.704Z,101385.75
2022-09-23T13:59:17.213Z,101384.03
2022-09-23T14:01:47.175Z,101371.53
2022-09-23T14:04:25.388Z,101372.53
2022-09-23T14:06:54.016Z,101368.34
2022-09-23T14:09:27.439Z,101366.78
2022-09-23T14:11:57.631Z,101360.41
2022-09-23T14:14:27.917Z,101356.13
2022-09-23T14:16:56.445Z,101353.59
2022-09-23T14:19:26.926Z,101352.00
2022-09-23T14:21:56.775Z,101348.41
2022-09-23T14:24:31.514Z,101353.75
2022-09-23T14:27:08.007Z,101347.50
2022-09-23T14:29:40.455Z,101347.03
2022-09-23T14:32:13.586Z,101339.94
2022-09-23T14:34:44.372Z,101332.53
2022-09-23T14:37:41.562Z,101332.31
2022-09-23T14:40:14.778Z,101329.97
2022-09-23T14:42:52.452Z,101323.34
2022-09-23T14:45:25.497Z,101316.69
2022-09-23T14:47:58.589Z,101314.34
2022-09-23T14:50:47.394Z,101311.66
2022-09-23T14:53:45.777Z,101303.94
2022-09-23T14:56:20.256Z,101306.09
2022-09-23T14:58:53.258Z,101296.25
2022-09-23T15:01:44.731Z,101303.41
2022-09-23T15:04:20.433Z,101300.66
2022-09-23T15:06:58.485Z,101295.97
2022-09-23T15:09:30.074Z,101300.94
2022-09-23T15:12:01.135Z,101301.81
2022-09-23T15:14:39.133Z,101295.75
2022-09-23T15:17:21.397Z,101297.84
2022-09-23T15:19:59.856Z,101295.13
2022-09-23T15:22:35.110Z,101302.19
2022-09-23T15:25:25.745Z,101302.91
2022-09-23T15:28:00.645Z,101305.09
2022-09-23T15:30:29.258Z,101312.19
2022-09-23T15:32:59.935Z,101316.09
2022-09-23T15:35:32.041Z,101309.31
2022-09-23T15:38:03.306Z,101313.94
2022-09-23T15:40:35.173Z,101302.53
2022-09-23T15:43:20.741Z,101303.94
2022-09-23T15:45:52.328Z,101288.91
2022-09-23T15:48:27.408Z,101287.78
2022-09-23T15:51:03.958Z,101282.38
2022-09-23T15:53:32.369Z,101284.91
2022-09-23T15:56:00.731Z,101279.16
2022-09-23T15:58:31.041Z,101277.59
2022-09-23T16:01:01.787Z,101284.44
2022-09-23T16:03:31.322Z,101286.97
2022-09-23T16:06:03.370Z,101284.78
2022-09-23T16:08:55.681Z,101280.88
2022-09-23T16:11:33.104Z,101283.28
2022-09-23T16:14:02.116Z,101287.41
2022-09-23T16:16:31.224Z,101283.53
2022-09-23T16:19:01.388Z,101288.44
2022-09-23T16:21:30.268Z,101291.31
2022-09-23T16:24:05.217Z,101292.91
2022-09-23T16:26:40.203Z,101291.47
2022-09-23T16:29:20.936Z,101291.91
2022-09-23T16:31:53.227Z,101292.56
2022-09-23T16:34:26.302Z,101290.72
2022-09-23T16:36:55.959Z,101287.97
2022-09-23T16:39:25.462Z,101299.47
2022-09-23T16:41:53.845Z,101297.44
2022-09-23T16:44:22.264Z,101299.31
2022-09-23T16:46:52.768Z,101293.00
2022-09-23T16:49:26.056Z,101294.41
2022-09-23T16:51:56.175Z,101302.00
2022-09-23T16:54:27.839Z,101298.47
2022-09-23T16:56:56.041Z,101301.47
2022-09-23T16:59:45.767Z,101307.47
2022-09-23T17:02:32.767Z,101300.84
2022-09-23T17:05:02.285Z,101299.75
2022-09-23T17:07:32.065Z,101304.44
2022-09-23T17:10:01.454Z,101308.97
2022-09-23T17:12:35.330Z,101300.66
2022-09-23T17:15:05.460Z,101318.16
2022-09-23T17:17:37.083Z,101310.41
2022-09-23T17:20:08.089Z,101317.84
2022-09-23T17:22:36.664Z,101308.13
2022-09-23T17:25:05.791Z,101319.91
2022-09-23T17:27:34.335Z,101312.50
2022-09-23T17:30:02.732Z,101314.44
2022-09-23T17:32:31.972Z,101316.50
2022-09-23T17:35:04.861Z,101322.28
2022-09-23T17:37:35.011Z,101318.44
2022-09-23T17:40:06.604Z,101320.28
2022-09-23T17:42:35.710Z,101317.53
2022-09-23T17:45:04.380Z,101324.84
2022-09-23T17:47:33.663Z,101331.44
2022-09-23T17:50:06.352Z,101322.13
2022-09-23T17:52:36.174Z,101323.88
2022-09-23T17:55:05.016Z,101326.84
2022-09-23T17:57:44.556Z,101320.97
2022-09-23T18:00:14.795Z,101320.63
2022-09-23T18:02:46.080Z,101325.53
2022-09-23T18:05:19.153Z,101331.59
2022-09-23T18:07:49.345Z,101343.59
2022-09-23T18:10:20.976Z,101345.75
2022-09-23T18:12:49.360Z,101345.13
2022-09-23T18:15:20.190Z,101340.22
2022-09-23T18:17:48.596Z,101344.94
2022-09-23T18:20:17.212Z,101340.72
2022-09-23T18:22:45.694Z,101342.69
2022-09-23T18:25:37.687Z,101349.41
2022-09-23T18:28:06.175Z,101356.66
2022-09-23T18:30:34.236Z,101350.81
2022-09-23T18:33:03.458Z,101348.75
2022-09-23T18:35:31.686Z,101354.47
2022-09-23T18:37:59.988Z,101353.41
2022-09-23T18:40:34.528Z,101353.97
2022-09-23T18:43:03.359Z,101358.31
2022-09-23T18:45:31.675Z,101372.59
2022-09-23T18:48:17.445Z,101369.75
2022-09-23T18:50:47.462Z,101367.56
2022-09-23T18:53:20.686Z,101380.34
2022-09-23T18:55:50.571Z,101379.31
2022-09-23T18:58:18.711Z,101381.28
2022-09-23T19:00:47.873Z,101384.53
2022-09-23T19:03:17.644Z,101373.91
2022-09-23T19:05:45.810Z,101374.41
2022-09-23T19:08:14.131Z,101371.91
2022-09-23T19:10:42.542Z,101374.06
2022-09-23T19:13:12.355Z,101370.16
2022-09-23T19:15:41.007Z,101371.81
2022-09-23T19:18:09.574Z,101377.78
2022-09-23T19:20:37.941Z,101389.84
2022-09-23T19:23:06.328Z,101386.00
2022-09-23T19:25:39.265Z,101378.75
2022-09-23T19:28:08.391Z,101387.22
2022-09-23T19:30:38.932Z,101386.50
2022-09-23T19:33:10.162Z,101392.56
2022-09-23T19:35:47.979Z,101391.88
2022-09-23T19:38:21.013Z,101392.09
2022-09-23T19:40:52.233Z,101390.44
2022-09-23T19:43:21.146Z,101388.78
2022-09-23T19:45:59.118Z,101393.56
2022-09-23T19:48:28.321Z,101395.50
2022-09-23T19:50:56.522Z,101392.66
2022-09-23T19:53:28.104Z,101396.91
2022-09-23T19:55:57.162Z,101394.41
2022-09-23T19:58:28.651Z,101395.97
2022-09-23T20:00:58.525Z,101397.88
2022-09-23T20:03:27.205Z,101396.22
2022-09-23T20:05:56.656Z,101399.78
2022-09-23T20:08:26.941Z,101402.91
2022-09-23T20:11:00.126Z,101399.47
2022-09-23T20:14:24.426Z,101403.88
2022-09-23T20:16:55.057Z,101403.38
2022-09-23T20:19:25.035Z,101405.03
2022-09-23T20:22:10.772Z,101395.66
2022-09-23T20:24:38.845Z,101394.34
2022-09-23T20:27:08.832Z,101399.94
2022-09-23T20:29:37.051Z,101393.41
2022-09-23T20:32:06.636Z,101388.53
2022-09-23T20:34:36.112Z,101389.56
2022-09-23T20:37:05.650Z,101389.94
2022-09-23T20:39:33.854Z,101391.50
2022-09-23T20:42:02.694Z,101391.16
2022-09-23T20:44:30.960Z,101385.91
2022-09-23T20:46:59.031Z,101391.16
2022-09-23T20:49:32.829Z,101398.06
2022-09-23T20:52:02.743Z,101395.81
2022-09-23T20:54:32.377Z,101402.47
2022-09-23T20:57:01.461Z,101391.28
2022-09-23T20:59:29.587Z,101390.66
2022-09-23T21:01:58.155Z,101397.84
2022-09-23T21:04:28.430Z,101389.59
2022-09-23T21:06:58.275Z,101398.06
2022-09-23T21:09:28.268Z,101398.06
2022-09-23T21:11:56.778Z,101398.19
2022-09-23T21:14:24.876Z,101397.34
2022-09-23T21:16:54.718Z,101399.97
2022-09-23T21:19:24.474Z,101401.53
2022-09-23T21:21:53.989Z,101402.81
2022-09-23T21:25:03.490Z,101398.91
2022-09-23T21:27:10.225Z,101403.78
2022-09-23T21:29:39.273Z,101411.75
2022-09-23T21:32:07.451Z,101400.81
2022-09-23T21:34:35.667Z,101409.75
2022-09-23T21:37:05.996Z,101409.97
2022-09-23T21:39:34.035Z,101407.09
2022-09-23T21:42:02.240Z,101408.53
2022-09-23T21:44:30.613Z,101412.34
2022-09-23T21:46:59.424Z,101407.94
2022-09-23T21:49:28.086Z,101413.53
2022-09-23T21:51:58.982Z,101406.97
2022-09-23T21:54:31.831Z,101404.13
2022-09-23T21:57:00.515Z,101415.06
2022-09-23T21:59:28.867Z,101410.91
2022-09-23T22:01:56.980Z,101409.25
2022-09-23T22:04:25.194Z,101418.88
2022-09-23T22:06:53.997Z,101417.69
2022-09-23T22:09:22.628Z,101432.28
2022-09-23T22:12:09.502Z,101418.06
2022-09-23T22:14:39.051Z,101419.94
2022-09-23T22:17:11.505Z,101423.59
2022-09-23T22:19:45.773Z,101424.91
2022-09-23T22:22:16.716Z,101431.53
2022-09-23T22:24:46.514Z,101430.50
2022-09-23T22:27:17.934Z,101429.28
2022-09-23T22:30:03.499Z,101427.63
2022-09-23T22:32:41.619Z,101428.09
2022-09-23T22:35:14.360Z,101430.84
2022-09-23T22:37:42.473Z,101427.13
2022-09-23T22:40:14.214Z,101428.16
2022-09-23T22:42:44.767Z,101433.63
2022-09-23T22:45:13.554Z,101438.47
2022-09-23T22:47:45.201Z,101429.78
2022-09-23T22:50:15.294Z,101434.63
2022-09-23T22:52:43.869Z,101430.69
2022-09-23T22:55:12.697Z,101433.16
2022-09-23T22:57:41.006Z,101432.56
2022-09-23T23:00:12.730Z,101430.91
2022-09-23T23:02:42.475Z,101430.34
2022-09-23T23:05:11.124Z,101437.84
2022-09-23T23:07:39.371Z,101439.94
2022-09-23T23:10:10.234Z,101430.72
2022-09-23T23:12:39.515Z,101425.94
2022-09-23T23:15:12.696Z,101424.28
2022-09-23T23:17:43.626Z,101420.09
2022-09-23T23:20:12.072Z,101422.91
2022-09-23T23:22:40.269Z,101425.88
2022-09-23T23:25:09.773Z,101433.25
2022-09-23T23:27:37.910Z,101430.97
2022-09-23T23:30:07.208Z,101429.28
2022-09-23T23:32:36.736Z,101431.41
2022-09-23T23:35:05.444Z,101429.13
2022-09-23T23:37:35.497Z,101431.88
2022-09-23T23:40:07.375Z,101430.38
2022-09-23T23:42:39.123Z,101430.81
2022-09-23T23:45:08.510Z,101433.91
2022-09-23T23:47:38.703Z,101430.81
2022-09-23T23:50:09.766Z,101430.56
2022-09-23T23:52:38.119Z,101427.16
2022-09-23T23:55:07.012Z,101422.09
2022-09-23T23:57:35.136Z,101426.50
